CCNI Vancouver — V7CG7 — position and weather

sailwx.info

Track history (hours):
 
Tides and Currents Weather Stations Pressure Air Temp Water Temp Dewpoint Dewpoint Depression Visibility Wind Speed Wind Dir Waves Ship Positions

CCNI Vancouver

Last reported at 2017-Oct-13 06:34 UTC. Time now 2017-Oct-22 06:29 UTC.
Position N 25°32' W 079°28'.
Warning: this ship's position is 8 days out of date.

Length 174.5 m; beam 30.6 m; draft 11.9 m.

Type: Cargo ship. MMSI: 538006871.

Date/timePositionNaut miles runAvg speedWind from/ knotsBaromVisibWave heightAir tempDewpointWater temp
2017-Oct-13 06:34N 25°32' W 079°28'  
2017-Oct-09 03:54N 29°50' W 093°57'0 0.0
2017-Oct-09 03:30N 29°50' W 093°57'0 0.0
2017-Oct-09 03:00N 29°50' W 093°57'0 0.0
2017-Oct-09 02:27N 29°50' W 093°57'0 0.0
2017-Oct-09 01:57N 29°50' W 093°57'0 0.0
2017-Oct-09 01:24N 29°50' W 093°57'0 0.0
2017-Oct-09 01:00N 29°50' W 093°57'  
2017-Oct-06 13:10N 29°31' W 093°47'211.9
2017-Oct-06 13:00N 29°30' W 093°49'611.8
2017-Oct-06 12:28N 29°28' W 093°56'46 9.1
2017-Oct-06 07:27N 29°22' W 094°48'512.5
2017-Oct-06 07:00N 29°27' W 094°50'612.4
2017-Oct-06 06:30N 29°32' W 094°54'612.1
2017-Oct-06 06:00N 29°37' W 094°58'510.8
2017-Oct-06 05:30N 29°42' W 095°00'4 8.4
2017-Oct-06 05:00N 29°45' W 095°04'3 6.9
2017-Oct-06 04:30N 29°44' W 095°08'3 6.8
2017-Oct-06 04:00N 29°45' W 095°12'3 5.8
2017-Oct-06 03:30N 29°43' W 095°15'2 3.7
2017-Oct-06 03:00N 29°44' W 095°17'0 0.0
2017-Oct-06 02:30N 29°44' W 095°17'0 0.0
2017-Oct-06 02:00N 29°44' W 095°17'0 0.0
2017-Oct-06 01:27N 29°44' W 095°17'0 0.0
2017-Oct-06 01:00N 29°44' W 095°17'0 0.0
2017-Oct-06 00:24N 29°44' W 095°17'0 0.0
2017-Oct-06 00:00N 29°44' W 095°17'0 0.0
2017-Oct-05 23:18N 29°44' W 095°17'0 0.0
2017-Oct-05 22:51N 29°44' W 095°17'0 0.0
2017-Oct-05 22:30N 29°44' W 095°17'0 0.0
2017-Oct-05 21:51N 29°44' W 095°17'0 0.0
2017-Oct-05 21:18N 29°44' W 095°17'0 0.0
2017-Oct-05 20:57N 29°44' W 095°17'0 0.0
2017-Oct-05 20:30N 29°44' W 095°17'0 0.0
2017-Oct-05 19:51N 29°44' W 095°17'0 0.0
2017-Oct-05 19:21N 29°44' W 095°17'0 0.0
2017-Oct-05 18:48N 29°44' W 095°17'0 0.0
2017-Oct-05 18:30N 29°44' W 095°17'0 0.0
2017-Oct-05 17:57N 29°44' W 095°17'0 0.0
2017-Oct-05 17:30N 29°44' W 095°17'0 0.0
2017-Oct-05 17:00N 29°44' W 095°17'0 0.0
2017-Oct-05 15:30N 29°44' W 095°17'0 0.0
2017-Oct-05 14:54N 29°44' W 095°17'0 0.0
2017-Oct-05 14:21N 29°44' W 095°17'0 0.0
2017-Oct-05 14:00N 29°44' W 095°17'0 0.0
2017-Oct-05 13:30N 29°44' W 095°17'0 0.0
2017-Oct-05 13:00N 29°44' W 095°17'0 0.0
2017-Oct-05 12:30N 29°44' W 095°17'0 0.0
2017-Oct-05 12:00N 29°44' W 095°17'0 0.0
2017-Oct-05 11:30N 29°44' W 095°17'0 0.0
2017-Oct-05 11:00N 29°44' W 095°17'0 0.0
2017-Oct-05 10:24N 29°44' W 095°17'0 0.0
2017-Oct-05 09:45N 29°44' W 095°17'0 0.0
2017-Oct-05 09:24N 29°44' W 095°17'0 0.0
2017-Oct-05 09:00N 29°44' W 095°17'0 0.0
2017-Oct-05 08:30N 29°44' W 095°17'0 0.0
2017-Oct-05 08:00N 29°44' W 095°17'0 0.0
2017-Oct-05 07:30N 29°44' W 095°17'0 0.0
2017-Oct-05 06:54N 29°44' W 095°17'0 0.0
2017-Oct-05 06:30N 29°44' W 095°17'0 0.0
2017-Oct-05 05:54N 29°44' W 095°17'0 0.0
2017-Oct-05 05:30N 29°44' W 095°17'0 0.0
2017-Oct-05 04:51N 29°44' W 095°17'0 0.0
2017-Oct-05 04:21N 29°44' W 095°17'0 0.0
2017-Oct-05 03:54N 29°44' W 095°17'0 0.0
2017-Oct-05 03:30N 29°44' W 095°17'0 0.0
2017-Oct-05 03:00N 29°44' W 095°17'0 0.0
2017-Oct-05 02:30N 29°44' W 095°17'0 0.0
2017-Oct-05 02:00N 29°44' W 095°17'0 0.0
2017-Oct-05 01:30N 29°44' W 095°17'0 0.0
2017-Oct-05 00:54N 29°44' W 095°17'0 0.0
2017-Oct-05 00:27N 29°44' W 095°17'0 0.0
2017-Oct-04 23:57N 29°44' W 095°17'0 0.0
2017-Oct-04 23:30N 29°44' W 095°17'0 0.0
2017-Oct-04 23:00N 29°44' W 095°17'0 0.0
2017-Oct-04 22:30N 29°44' W 095°17'0 0.0
2017-Oct-04 21:45N 29°44' W 095°17'0 0.0
2017-Oct-04 21:30N 29°44' W 095°17'0 0.0
2017-Oct-04 21:00N 29°44' W 095°17'0 0.0
2017-Oct-04 20:30N 29°44' W 095°17'0 0.0
2017-Oct-04 20:00N 29°44' W 095°17'0 0.0
2017-Oct-04 19:27N 29°44' W 095°17'0 0.0
2017-Oct-04 19:00N 29°44' W 095°17'0 0.0
2017-Oct-04 18:30N 29°44' W 095°17'0 0.0
2017-Oct-04 17:57N 29°44' W 095°17'0 0.0
2017-Oct-04 17:21N 29°44' W 095°17'0 0.0
2017-Oct-04 17:00N 29°44' W 095°17'0 0.0
2017-Oct-04 16:27N 29°44' W 095°17'0 0.0
2017-Oct-04 16:00N 29°44' W 095°17'0 0.0
2017-Oct-04 15:27N 29°44' W 095°17'0 0.0
2017-Oct-04 12:42N 29°44' W 095°17'0 0.0
2017-Oct-04 12:30N 29°44' W 095°17'0 0.0
2017-Oct-04 11:57N 29°44' W 095°17'0 0.0
2017-Oct-04 11:30N 29°44' W 095°17'0 0.0
2017-Oct-04 10:51N 29°44' W 095°17'0 0.0
2017-Oct-04 10:00N 29°44' W 095°17'0 0.0
2017-Oct-04 09:30N 29°44' W 095°17'0 0.0
2017-Oct-04 08:48N 29°44' W 095°17'0 0.0
2017-Oct-04 08:18N 29°44' W 095°17'0 0.0
2017-Oct-04 08:00N 29°44' W 095°17'0 0.0
2017-Oct-04 06:51N 29°44' W 095°17'0 0.0
2017-Oct-04 06:24N 29°44' W 095°17'0 0.0
2017-Oct-04 06:00N 29°44' W 095°17'0 0.0
2017-Oct-04 05:30N 29°44' W 095°17'0 0.0
2017-Oct-04 05:00N 29°44' W 095°17'0 0.0
2017-Oct-04 04:27N 29°44' W 095°17'0 0.0
2017-Oct-04 03:57N 29°44' W 095°17'0 0.0
2017-Oct-04 03:24N 29°44' W 095°17'0 0.0
2017-Oct-04 03:00N 29°44' W 095°17'0 0.0
2017-Oct-04 02:30N 29°44' W 095°17'0 0.0
2017-Oct-04 02:00N 29°44' W 095°17'0 0.0
2017-Oct-04 01:30N 29°44' W 095°17'0 0.0
2017-Oct-04 00:33N 29°44' W 095°17'0 0.0
2017-Oct-04 00:24N 29°44' W 095°17'0 0.0
2017-Oct-03 23:48N 29°44' W 095°17'0 0.0
2017-Oct-03 23:15N 29°44' W 095°17'0 0.0
2017-Oct-03 22:57N 29°44' W 095°17'0 0.0
2017-Oct-03 22:30N 29°44' W 095°17'0 0.0
2017-Oct-03 21:57N 29°44' W 095°17'0 0.0
2017-Oct-03 21:18N 29°44' W 095°17'0 0.0
2017-Oct-03 20:57N 29°44' W 095°17'0 0.0
2017-Oct-03 20:18N 29°44' W 095°17'0 0.0
2017-Oct-03 20:00N 29°44' W 095°17'0 0.0
2017-Oct-03 19:27N 29°44' W 095°17'1 3.2
2017-Oct-03 19:00N 29°43' W 095°15'3 5.2
2017-Oct-03 18:30N 29°44' W 095°12'3 6.4
2017-Oct-03 18:00N 29°44' W 095°09'4 7.1
2017-Oct-03 17:28N 29°46' W 095°04'4 8.3
2017-Oct-03 17:00N 29°43' W 095°01'5 9.6
2017-Oct-03 16:30N 29°39' W 094°58'611.8
2017-Oct-03 16:00N 29°34' W 094°55'612.2
2017-Oct-03 15:30N 29°29' W 094°51'612.2
2017-Oct-03 15:00N 29°23' W 094°49'  
Track history (hours):
 
Tides and Currents Weather Stations Pressure Air Temp Water Temp Dewpoint Dewpoint Depression Visibility Wind Speed Wind Dir Waves Ship Positions

CCNI Vancouver

Last reported at 2017-Oct-13 06:34 UTC. Time now 2017-Oct-22 06:29 UTC.
Position N 25°32' W 079°28'.
Warning: this ship's position is 8 days out of date.

Length 174.5 m; beam 30.6 m; draft 11.9 m.

Type: Cargo ship. MMSI: 538006871.

Date/timePositionNaut miles runAvg speedWind from/ knotsBaromVisibWave heightAir tempDewpointWater temp
2017-Oct-13 06:34N 25°32' W 079°28'  
2017-Oct-09 03:54N 29°50' W 093°57'0 0.0
2017-Oct-09 03:30N 29°50' W 093°57'0 0.0
2017-Oct-09 03:00N 29°50' W 093°57'0 0.0
2017-Oct-09 02:27N 29°50' W 093°57'0 0.0
2017-Oct-09 01:57N 29°50' W 093°57'0 0.0
2017-Oct-09 01:24N 29°50' W 093°57'0 0.0
2017-Oct-09 01:00N 29°50' W 093°57'  
2017-Oct-06 13:10N 29°31' W 093°47'211.9
2017-Oct-06 13:00N 29°30' W 093°49'611.8
2017-Oct-06 12:28N 29°28' W 093°56'46 9.1
2017-Oct-06 07:27N 29°22' W 094°48'512.5
2017-Oct-06 07:00N 29°27' W 094°50'612.4
2017-Oct-06 06:30N 29°32' W 094°54'612.1
2017-Oct-06 06:00N 29°37' W 094°58'510.8
2017-Oct-06 05:30N 29°42' W 095°00'4 8.4
2017-Oct-06 05:00N 29°45' W 095°04'3 6.9
2017-Oct-06 04:30N 29°44' W 095°08'3 6.8
2017-Oct-06 04:00N 29°45' W 095°12'3 5.8
2017-Oct-06 03:30N 29°43' W 095°15'2 3.7
2017-Oct-06 03:00N 29°44' W 095°17'0 0.0
2017-Oct-06 02:30N 29°44' W 095°17'0 0.0
2017-Oct-06 02:00N 29°44' W 095°17'0 0.0
2017-Oct-06 01:27N 29°44' W 095°17'0 0.0
2017-Oct-06 01:00N 29°44' W 095°17'0 0.0
2017-Oct-06 00:24N 29°44' W 095°17'0 0.0
2017-Oct-06 00:00N 29°44' W 095°17'0 0.0
2017-Oct-05 23:18N 29°44' W 095°17'0 0.0
2017-Oct-05 22:51N 29°44' W 095°17'0 0.0
2017-Oct-05 22:30N 29°44' W 095°17'0 0.0
2017-Oct-05 21:51N 29°44' W 095°17'0 0.0
2017-Oct-05 21:18N 29°44' W 095°17'0 0.0
2017-Oct-05 20:57N 29°44' W 095°17'0 0.0
2017-Oct-05 20:30N 29°44' W 095°17'0 0.0
2017-Oct-05 19:51N 29°44' W 095°17'0 0.0
2017-Oct-05 19:21N 29°44' W 095°17'0 0.0
2017-Oct-05 18:48N 29°44' W 095°17'0 0.0
2017-Oct-05 18:30N 29°44' W 095°17'0 0.0
2017-Oct-05 17:57N 29°44' W 095°17'0 0.0
2017-Oct-05 17:30N 29°44' W 095°17'0 0.0
2017-Oct-05 17:00N 29°44' W 095°17'0 0.0
2017-Oct-05 15:30N 29°44' W 095°17'0 0.0
2017-Oct-05 14:54N 29°44' W 095°17'0 0.0
2017-Oct-05 14:21N 29°44' W 095°17'0 0.0
2017-Oct-05 14:00N 29°44' W 095°17'0 0.0
2017-Oct-05 13:30N 29°44' W 095°17'0 0.0
2017-Oct-05 13:00N 29°44' W 095°17'0 0.0
2017-Oct-05 12:30N 29°44' W 095°17'0 0.0
2017-Oct-05 12:00N 29°44' W 095°17'0 0.0
2017-Oct-05 11:30N 29°44' W 095°17'0 0.0
2017-Oct-05 11:00N 29°44' W 095°17'0 0.0
2017-Oct-05 10:24N 29°44' W 095°17'0 0.0
2017-Oct-05 09:45N 29°44' W 095°17'0 0.0
2017-Oct-05 09:24N 29°44' W 095°17'0 0.0
2017-Oct-05 09:00N 29°44' W 095°17'0 0.0
2017-Oct-05 08:30N 29°44' W 095°17'0 0.0
2017-Oct-05 08:00N 29°44' W 095°17'0 0.0
2017-Oct-05 07:30N 29°44' W 095°17'0 0.0
2017-Oct-05 06:54N 29°44' W 095°17'0 0.0
2017-Oct-05 06:30N 29°44' W 095°17'0 0.0
2017-Oct-05 05:54N 29°44' W 095°17'0 0.0
2017-Oct-05 05:30N 29°44' W 095°17'0 0.0
2017-Oct-05 04:51N 29°44' W 095°17'0 0.0
2017-Oct-05 04:21N 29°44' W 095°17'0 0.0
2017-Oct-05 03:54N 29°44' W 095°17'0 0.0
2017-Oct-05 03:30N 29°44' W 095°17'0 0.0
2017-Oct-05 03:00N 29°44' W 095°17'0 0.0
2017-Oct-05 02:30N 29°44' W 095°17'0 0.0
2017-Oct-05 02:00N 29°44' W 095°17'0 0.0
2017-Oct-05 01:30N 29°44' W 095°17'0 0.0
2017-Oct-05 00:54N 29°44' W 095°17'0 0.0
2017-Oct-05 00:27N 29°44' W 095°17'0 0.0
2017-Oct-04 23:57N 29°44' W 095°17'0 0.0
2017-Oct-04 23:30N 29°44' W 095°17'0 0.0
2017-Oct-04 23:00N 29°44' W 095°17'0 0.0
2017-Oct-04 22:30N 29°44' W 095°17'0 0.0
2017-Oct-04 21:45N 29°44' W 095°17'0 0.0
2017-Oct-04 21:30N 29°44' W 095°17'0 0.0
2017-Oct-04 21:00N 29°44' W 095°17'0 0.0
2017-Oct-04 20:30N 29°44' W 095°17'0 0.0
2017-Oct-04 20:00N 29°44' W 095°17'0 0.0
2017-Oct-04 19:27N 29°44' W 095°17'0 0.0
2017-Oct-04 19:00N 29°44' W 095°17'0 0.0
2017-Oct-04 18:30N 29°44' W 095°17'0 0.0
2017-Oct-04 17:57N 29°44' W 095°17'0 0.0
2017-Oct-04 17:21N 29°44' W 095°17'0 0.0
2017-Oct-04 17:00N 29°44' W 095°17'0 0.0
2017-Oct-04 16:27N 29°44' W 095°17'0 0.0
2017-Oct-04 16:00N 29°44' W 095°17'0 0.0
2017-Oct-04 15:27N 29°44' W 095°17'0 0.0
2017-Oct-04 12:42N 29°44' W 095°17'0 0.0
2017-Oct-04 12:30N 29°44' W 095°17'0 0.0
2017-Oct-04 11:57N 29°44' W 095°17'0 0.0
2017-Oct-04 11:30N 29°44' W 095°17'0 0.0
2017-Oct-04 10:51N 29°44' W 095°17'0 0.0
2017-Oct-04 10:00N 29°44' W 095°17'0 0.0
2017-Oct-04 09:30N 29°44' W 095°17'0 0.0
2017-Oct-04 08:48N 29°44' W 095°17'0 0.0
2017-Oct-04 08:18N 29°44' W 095°17'0 0.0
2017-Oct-04 08:00N 29°44' W 095°17'0 0.0
2017-Oct-04 06:51N 29°44' W 095°17'0 0.0
2017-Oct-04 06:24N 29°44' W 095°17'0 0.0
2017-Oct-04 06:00N 29°44' W 095°17'0 0.0
2017-Oct-04 05:30N 29°44' W 095°17'0 0.0
2017-Oct-04 05:00N 29°44' W 095°17'0 0.0
2017-Oct-04 04:27N 29°44' W 095°17'0 0.0
2017-Oct-04 03:57N 29°44' W 095°17'0 0.0
2017-Oct-04 03:24N 29°44' W 095°17'0 0.0
2017-Oct-04 03:00N 29°44' W 095°17'0 0.0
2017-Oct-04 02:30N 29°44' W 095°17'0 0.0
2017-Oct-04 02:00N 29°44' W 095°17'0 0.0
2017-Oct-04 01:30N 29°44' W 095°17'0 0.0
2017-Oct-04 00:33N 29°44' W 095°17'0 0.0
2017-Oct-04 00:24N 29°44' W 095°17'0 0.0
2017-Oct-03 23:48N 29°44' W 095°17'0 0.0
2017-Oct-03 23:15N 29°44' W 095°17'0 0.0
2017-Oct-03 22:57N 29°44' W 095°17'0 0.0
2017-Oct-03 22:30N 29°44' W 095°17'0 0.0
2017-Oct-03 21:57N 29°44' W 095°17'0 0.0
2017-Oct-03 21:18N 29°44' W 095°17'0 0.0
2017-Oct-03 20:57N 29°44' W 095°17'0 0.0
2017-Oct-03 20:18N 29°44' W 095°17'0 0.0
2017-Oct-03 20:00N 29°44' W 095°17'0 0.0
2017-Oct-03 19:27N 29°44' W 095°17'1 3.2
2017-Oct-03 19:00N 29°43' W 095°15'3 5.2
2017-Oct-03 18:30N 29°44' W 095°12'3 6.4
2017-Oct-03 18:00N 29°44' W 095°09'4 7.1
2017-Oct-03 17:28N 29°46' W 095°04'4 8.3
2017-Oct-03 17:00N 29°43' W 095°01'5 9.6
2017-Oct-03 16:30N 29°39' W 094°58'611.8
2017-Oct-03 16:00N 29°34' W 094°55'612.2
2017-Oct-03 15:30N 29°29' W 094°51'612.2
2017-Oct-03 15:00N 29°23' W 094°49'  

Dump ship's entire track history